sensor_id;sensor_type;location;lat;lon;timestamp;P1;durP1;ratioP1;P2;durP2;ratioP2
1799;SDS011;919;48.274;12.292;2023-02-13T00:00:33;20.97;;;10.83;;
1799;SDS011;919;48.274;12.292;2023-02-13T00:03:00;23.40;;;9.80;;
1799;SDS011;919;48.274;12.292;2023-02-13T00:05:27;24.10;;;9.20;;
1799;SDS011;919;48.274;12.292;2023-02-13T00:07:54;25.93;;;10.67;;
1799;SDS011;919;48.274;12.292;2023-02-13T00:10:20;16.53;;;9.83;;
1799;SDS011;919;48.274;12.292;2023-02-13T00:12:48;18.70;;;8.83;;
1799;SDS011;919;48.274;12.292;2023-02-13T00:15:15;26.73;;;9.90;;
1799;SDS011;919;48.274;12.292;2023-02-13T00:17:42;25.30;;;9.27;;
1799;SDS011;919;48.274;12.292;2023-02-13T00:20:09;22.50;;;9.97;;
1799;SDS011;919;48.274;12.292;2023-02-13T00:22:36;17.43;;;9.50;;
1799;SDS011;919;48.274;12.292;2023-02-13T00:25:04;13.60;;;8.80;;
1799;SDS011;919;48.274;12.292;2023-02-13T00:27:31;21.73;;;8.67;;
1799;SDS011;919;48.274;12.292;2023-02-13T00:30:00;14.93;;;8.00;;
1799;SDS011;919;48.274;12.292;2023-02-13T00:32:26;24.20;;;8.27;;
1799;SDS011;919;48.274;12.292;2023-02-13T00:34:53;12.27;;;8.00;;
1799;SDS011;919;48.274;12.292;2023-02-13T00:37:20;18.07;;;9.03;;
1799;SDS011;919;48.274;12.292;2023-02-13T00:39:47;17.47;;;9.53;;
1799;SDS011;919;48.274;12.292;2023-02-13T00:42:13;10.73;;;7.50;;
1799;SDS011;919;48.274;12.292;2023-02-13T00:44:40;18.27;;;9.27;;
1799;SDS011;919;48.274;12.292;2023-02-13T00:47:08;19.70;;;8.10;;
1799;SDS011;919;48.274;12.292;2023-02-13T00:49:38;20.90;;;9.53;;
1799;SDS011;919;48.274;12.292;2023-02-13T00:52:05;21.20;;;8.97;;
1799;SDS011;919;48.274;12.292;2023-02-13T00:54:32;13.50;;;8.53;;
1799;SDS011;919;48.274;12.292;2023-02-13T00:56:58;21.70;;;9.83;;
1799;SDS011;919;48.274;12.292;2023-02-13T00:59:25;19.40;;;9.20;;
1799;SDS011;919;48.274;12.292;2023-02-13T01:01:52;14.43;;;9.00;;
1799;SDS011;919;48.274;12.292;2023-02-13T01:04:20;18.73;;;8.73;;
1799;SDS011;919;48.274;12.292;2023-02-13T01:06:46;24.77;;;9.27;;
1799;SDS011;919;48.274;12.292;2023-02-13T01:09:13;27.57;;;8.47;;
1799;SDS011;919;48.274;12.292;2023-02-13T01:11:40;17.13;;;9.50;;
1799;SDS011;919;48.274;12.292;2023-02-13T01:14:07;24.93;;;8.70;;
1799;SDS011;919;48.274;12.292;2023-02-13T01:16:33;14.53;;;7.80;;
1799;SDS011;919;48.274;12.292;2023-02-13T01:19:00;21.90;;;8.30;;
1799;SDS011;919;48.274;12.292;2023-02-13T01:21:28;14.47;;;9.27;;
1799;SDS011;919;48.274;12.292;2023-02-13T01:23:55;17.13;;;9.03;;
1799;SDS011;919;48.274;12.292;2023-02-13T01:26:22;17.03;;;9.23;;
1799;SDS011;919;48.274;12.292;2023-02-13T01:28:50;16.93;;;8.30;;
1799;SDS011;919;48.274;12.292;2023-02-13T01:31:18;19.43;;;8.03;;
1799;SDS011;919;48.274;12.292;2023-02-13T01:33:45;27.30;;;8.63;;
1799;SDS011;919;48.274;12.292;2023-02-13T01:36:12;23.27;;;9.30;;
1799;SDS011;919;48.274;12.292;2023-02-13T01:38:40;22.97;;;10.00;;
1799;SDS011;919;48.274;12.292;2023-02-13T01:41:08;23.70;;;9.47;;
1799;SDS011;919;48.274;12.292;2023-02-13T01:43:45;26.20;;;9.70;;
1799;SDS011;919;48.274;12.292;2023-02-13T01:46:15;15.30;;;7.60;;
1799;SDS011;919;48.274;12.292;2023-02-13T01:48:44;19.97;;;9.80;;
1799;SDS011;919;48.274;12.292;2023-02-13T01:51:13;20.40;;;9.27;;
1799;SDS011;919;48.274;12.292;2023-02-13T01:53:45;26.27;;;8.63;;
1799;SDS011;919;48.274;12.292;2023-02-13T01:56:19;16.83;;;8.17;;
1799;SDS011;919;48.274;12.292;2023-02-13T01:58:50;19.13;;;8.70;;
1799;SDS011;919;48.274;12.292;2023-02-13T02:01:22;22.53;;;7.97;;
1799;SDS011;919;48.274;12.292;2023-02-13T02:03:51;14.03;;;7.87;;
1799;SDS011;919;48.274;12.292;2023-02-13T02:06:20;20.10;;;9.17;;
1799;SDS011;919;48.274;12.292;2023-02-13T02:08:53;14.77;;;8.13;;
1799;SDS011;919;48.274;12.292;2023-02-13T02:11:24;16.07;;;7.90;;
1799;SDS011;919;48.274;12.292;2023-02-13T02:13:56;19.40;;;8.90;;
1799;SDS011;919;48.274;12.292;2023-02-13T02:16:24;17.13;;;8.30;;
1799;SDS011;919;48.274;12.292;2023-02-13T02:18:50;11.53;;;8.37;;
1799;SDS011;919;48.274;12.292;2023-02-13T02:21:27;14.73;;;6.97;;
1799;SDS011;919;48.274;12.292;2023-02-13T02:24:36;20.53;;;9.17;;
1799;SDS011;919;48.274;12.292;2023-02-13T02:27:16;23.57;;;8.67;;
1799;SDS011;919;48.274;12.292;2023-02-13T02:30:21;22.73;;;8.87;;
1799;SDS011;919;48.274;12.292;2023-02-13T02:33:15;12.40;;;7.87;;
1799;SDS011;919;48.274;12.292;2023-02-13T02:35:56;11.40;;;7.93;;
1799;SDS011;919;48.274;12.292;2023-02-13T02:38:38;25.83;;;9.53;;
1799;SDS011;919;48.274;12.292;2023-02-13T02:41:16;22.13;;;8.87;;
1799;SDS011;919;48.274;12.292;2023-02-13T02:44:14;12.87;;;7.90;;
1799;SDS011;919;48.274;12.292;2023-02-13T02:46:56;13.30;;;7.47;;
1799;SDS011;919;48.274;12.292;2023-02-13T02:49:59;11.60;;;7.77;;
1799;SDS011;919;48.274;12.292;2023-02-13T02:52:39;16.97;;;7.87;;
1799;SDS011;919;48.274;12.292;2023-02-13T02:55:11;20.20;;;9.13;;
1799;SDS011;919;48.274;12.292;2023-02-13T02:57:47;12.50;;;8.27;;
1799;SDS011;919;48.274;12.292;2023-02-13T03:00:35;12.20;;;8.40;;
1799;SDS011;919;48.274;12.292;2023-02-13T03:03:22;11.40;;;7.77;;
1799;SDS011;919;48.274;12.292;2023-02-13T03:06:11;10.90;;;7.17;;
1799;SDS011;919;48.274;12.292;2023-02-13T03:08:42;12.70;;;7.07;;
1799;SDS011;919;48.274;12.292;2023-02-13T03:11:29;35.13;;;8.63;;
1799;SDS011;919;48.274;12.292;2023-02-13T03:14:15;14.57;;;7.57;;
1799;SDS011;919;48.274;12.292;2023-02-13T03:16:45;20.07;;;8.17;;
1799;SDS011;919;48.274;12.292;2023-02-13T03:19:44;16.17;;;7.93;;
1799;SDS011;919;48.274;12.292;2023-02-13T03:22:41;19.93;;;8.40;;
1799;SDS011;919;48.274;12.292;2023-02-13T03:25:20;13.20;;;8.30;;
1799;SDS011;919;48.274;12.292;2023-02-13T03:28:00;14.50;;;7.37;;
1799;SDS011;919;48.274;12.292;2023-02-13T03:30:57;17.13;;;7.87;;
1799;SDS011;919;48.274;12.292;2023-02-13T03:33:41;15.27;;;7.03;;
1799;SDS011;919;48.274;12.292;2023-02-13T03:36:22;23.20;;;7.97;;
1799;SDS011;919;48.274;12.292;2023-02-13T03:39:18;18.13;;;7.87;;
1799;SDS011;919;48.274;12.292;2023-02-13T03:41:48;17.20;;;7.37;;
1799;SDS011;919;48.274;12.292;2023-02-13T03:44:22;26.13;;;7.83;;
1799;SDS011;919;48.274;12.292;2023-02-13T03:46:54;18.90;;;8.13;;
1799;SDS011;919;48.274;12.292;2023-02-13T03:49:25;14.10;;;7.83;;
1799;SDS011;919;48.274;12.292;2023-02-13T03:52:15;12.70;;;6.90;;
1799;SDS011;919;48.274;12.292;2023-02-13T03:54:47;12.20;;;7.40;;
1799;SDS011;919;48.274;12.292;2023-02-13T03:57:35;13.93;;;7.70;;
1799;SDS011;919;48.274;12.292;2023-02-13T04:00:24;16.20;;;7.93;;
1799;SDS011;919;48.274;12.292;2023-02-13T04:02:56;11.20;;;6.70;;
1799;SDS011;919;48.274;12.292;2023-02-13T04:05:27;21.80;;;8.87;;
1799;SDS011;919;48.274;12.292;2023-02-13T04:07:57;18.70;;;7.33;;
1799;SDS011;919;48.274;12.292;2023-02-13T04:10:25;20.03;;;8.13;;
1799;SDS011;919;48.274;12.292;2023-02-13T04:12:57;31.57;;;8.87;;
1799;SDS011;919;48.274;12.292;2023-02-13T04:15:28;13.10;;;7.53;;
1799;SDS011;919;48.274;12.292;2023-02-13T04:18:01;12.93;;;7.90;;
1799;SDS011;919;48.274;12.292;2023-02-13T04:20:33;12.73;;;7.83;;
1799;SDS011;919;48.274;12.292;2023-02-13T04:23:03;20.93;;;7.93;;
1799;SDS011;919;48.274;12.292;2023-02-13T04:25:32;23.50;;;8.57;;
1799;SDS011;919;48.274;12.292;2023-02-13T04:28:00;22.87;;;8.10;;
1799;SDS011;919;48.274;12.292;2023-02-13T04:30:27;31.57;;;7.33;;
1799;SDS011;919;48.274;12.292;2023-02-13T04:32:54;18.70;;;8.20;;
1799;SDS011;919;48.274;12.292;2023-02-13T04:35:20;23.07;;;7.80;;
1799;SDS011;919;48.274;12.292;2023-02-13T04:37:47;14.13;;;7.33;;
1799;SDS011;919;48.274;12.292;2023-02-13T04:40:14;27.67;;;8.30;;
1799;SDS011;919;48.274;12.292;2023-02-13T04:42:42;21.17;;;8.63;;
1799;SDS011;919;48.274;12.292;2023-02-13T04:45:09;19.87;;;7.40;;
1799;SDS011;919;48.274;12.292;2023-02-13T04:47:35;19.03;;;7.17;;
1799;SDS011;919;48.274;12.292;2023-02-13T04:50:02;11.90;;;7.40;;
1799;SDS011;919;48.274;12.292;2023-02-13T04:52:29;28.80;;;7.73;;
1799;SDS011;919;48.274;12.292;2023-02-13T04:54:56;18.37;;;7.97;;
1799;SDS011;919;48.274;12.292;2023-02-13T04:57:23;12.10;;;6.93;;
1799;SDS011;919;48.274;12.292;2023-02-13T04:59:51;26.23;;;9.30;;
1799;SDS011;919;48.274;12.292;2023-02-13T05:02:17;18.33;;;7.47;;
1799;SDS011;919;48.274;12.292;2023-02-13T05:04:44;14.40;;;9.57;;
1799;SDS011;919;48.274;12.292;2023-02-13T05:07:11;13.03;;;7.47;;
1799;SDS011;919;48.274;12.292;2023-02-13T05:09:37;12.83;;;8.07;;
1799;SDS011;919;48.274;12.292;2023-02-13T05:12:04;11.50;;;7.60;;
1799;SDS011;919;48.274;12.292;2023-02-13T05:14:31;17.50;;;8.30;;
1799;SDS011;919;48.274;12.292;2023-02-13T05:16:59;19.67;;;7.53;;
1799;SDS011;919;48.274;12.292;2023-02-13T05:19:26;27.73;;;7.77;;
1799;SDS011;919;48.274;12.292;2023-02-13T05:21:52;12.13;;;7.17;;
1799;SDS011;919;48.274;12.292;2023-02-13T05:24:37;25.77;;;8.30;;
1799;SDS011;919;48.274;12.292;2023-02-13T05:27:03;16.40;;;7.97;;
1799;SDS011;919;48.274;12.292;2023-02-13T05:29:30;27.50;;;7.90;;
1799;SDS011;919;48.274;12.292;2023-02-13T05:31:57;12.43;;;7.73;;
1799;SDS011;919;48.274;12.292;2023-02-13T05:34:26;16.90;;;8.17;;
1799;SDS011;919;48.274;12.292;2023-02-13T05:36:54;15.40;;;8.90;;
1799;SDS011;919;48.274;12.292;2023-02-13T05:39:20;20.03;;;7.77;;
1799;SDS011;919;48.274;12.292;2023-02-13T05:41:47;22.93;;;9.07;;
1799;SDS011;919;48.274;12.292;2023-02-13T05:44:14;13.87;;;7.73;;
1799;SDS011;919;48.274;12.292;2023-02-13T05:46:41;12.17;;;7.80;;
1799;SDS011;919;48.274;12.292;2023-02-13T05:49:09;14.77;;;8.33;;
1799;SDS011;919;48.274;12.292;2023-02-13T05:51:38;17.27;;;8.90;;
1799;SDS011;919;48.274;12.292;2023-02-13T05:54:06;19.97;;;8.27;;
1799;SDS011;919;48.274;12.292;2023-02-13T05:56:32;12.07;;;7.40;;
1799;SDS011;919;48.274;12.292;2023-02-13T05:58:59;24.73;;;9.40;;
1799;SDS011;919;48.274;12.292;2023-02-13T06:01:26;14.87;;;8.30;;
1799;SDS011;919;48.274;12.292;2023-02-13T06:03:53;14.83;;;8.53;;
1799;SDS011;919;48.274;12.292;2023-02-13T06:06:19;15.70;;;8.50;;
1799;SDS011;919;48.274;12.292;2023-02-13T06:08:48;15.70;;;8.90;;
1799;SDS011;919;48.274;12.292;2023-02-13T06:11:14;21.50;;;8.70;;
1799;SDS011;919;48.274;12.292;2023-02-13T06:13:41;14.43;;;8.43;;
1799;SDS011;919;48.274;12.292;2023-02-13T06:16:08;17.57;;;9.07;;
1799;SDS011;919;48.274;12.292;2023-02-13T06:18:36;13.63;;;8.43;;
1799;SDS011;919;48.274;12.292;2023-02-13T06:21:03;20.63;;;9.70;;
1799;SDS011;919;48.274;12.292;2023-02-13T06:23:30;27.80;;;10.67;;
1799;SDS011;919;48.274;12.292;2023-02-13T06:26:01;21.33;;;9.17;;
1799;SDS011;919;48.274;12.292;2023-02-13T06:28:29;16.33;;;8.60;;
1799;SDS011;919;48.274;12.292;2023-02-13T06:30:56;32.33;;;10.40;;
1799;SDS011;919;48.274;12.292;2023-02-13T06:33:22;28.67;;;9.60;;
1799;SDS011;919;48.274;12.292;2023-02-13T06:35:49;15.93;;;8.07;;
1799;SDS011;919;48.274;12.292;2023-02-13T06:38:16;14.00;;;8.03;;
1799;SDS011;919;48.274;12.292;2023-02-13T06:40:43;14.33;;;7.97;;
1799;SDS011;919;48.274;12.292;2023-02-13T06:43:11;17.13;;;7.80;;
1799;SDS011;919;48.274;12.292;2023-02-13T06:45:38;16.57;;;8.87;;
1799;SDS011;919;48.274;12.292;2023-02-13T06:48:05;12.70;;;6.60;;
1799;SDS011;919;48.274;12.292;2023-02-13T06:50:32;13.27;;;7.90;;
1799;SDS011;919;48.274;12.292;2023-02-13T06:52:59;12.80;;;7.13;;
1799;SDS011;919;48.274;12.292;2023-02-13T06:55:26;18.43;;;8.67;;
1799;SDS011;919;48.274;12.292;2023-02-13T06:57:53;35.07;;;9.03;;
1799;SDS011;919;48.274;12.292;2023-02-13T07:00:21;23.93;;;9.57;;
1799;SDS011;919;48.274;12.292;2023-02-13T07:02:48;19.60;;;8.67;;
1799;SDS011;919;48.274;12.292;2023-02-13T07:05:15;19.73;;;9.90;;
1799;SDS011;919;48.274;12.292;2023-02-13T07:07:41;16.57;;;9.03;;
1799;SDS011;919;48.274;12.292;2023-02-13T07:10:09;21.23;;;10.10;;
1799;SDS011;919;48.274;12.292;2023-02-13T07:12:37;20.10;;;9.10;;
1799;SDS011;919;48.274;12.292;2023-02-13T07:15:04;16.40;;;8.50;;
1799;SDS011;919;48.274;12.292;2023-02-13T07:17:33;13.70;;;7.83;;
1799;SDS011;919;48.274;12.292;2023-02-13T07:20:00;14.90;;;8.97;;
1799;SDS011;919;48.274;12.292;2023-02-13T07:22:29;16.30;;;9.57;;
1799;SDS011;919;48.274;12.292;2023-02-13T07:24:56;21.83;;;8.33;;
1799;SDS011;919;48.274;12.292;2023-02-13T07:27:24;30.23;;;9.83;;
1799;SDS011;919;48.274;12.292;2023-02-13T07:29:53;17.07;;;9.03;;
1799;SDS011;919;48.274;12.292;2023-02-13T07:32:20;16.10;;;9.00;;
1799;SDS011;919;48.274;12.292;2023-02-13T07:34:48;16.30;;;8.80;;
1799;SDS011;919;48.274;12.292;2023-02-13T07:37:14;17.73;;;9.30;;
1799;SDS011;919;48.274;12.292;2023-02-13T07:39:41;14.53;;;8.70;;
1799;SDS011;919;48.274;12.292;2023-02-13T07:42:08;14.30;;;9.50;;
1799;SDS011;919;48.274;12.292;2023-02-13T07:44:34;16.13;;;8.40;;
1799;SDS011;919;48.274;12.292;2023-02-13T07:47:01;18.33;;;8.70;;
1799;SDS011;919;48.274;12.292;2023-02-13T07:49:28;21.33;;;8.27;;
1799;SDS011;919;48.274;12.292;2023-02-13T07:51:56;12.97;;;7.07;;
1799;SDS011;919;48.274;12.292;2023-02-13T07:54:23;18.30;;;8.57;;
1799;SDS011;919;48.274;12.292;2023-02-13T07:56:50;14.83;;;8.80;;
1799;SDS011;919;48.274;12.292;2023-02-13T07:59:16;14.37;;;7.50;;
1799;SDS011;919;48.274;12.292;2023-02-13T08:01:43;15.30;;;8.10;;
1799;SDS011;919;48.274;12.292;2023-02-13T08:04:10;13.40;;;8.50;;
1799;SDS011;919;48.274;12.292;2023-02-13T08:06:37;26.90;;;10.17;;
1799;SDS011;919;48.274;12.292;2023-02-13T08:09:05;15.60;;;8.70;;
1799;SDS011;919;48.274;12.292;2023-02-13T08:11:50;16.60;;;9.07;;
1799;SDS011;919;48.274;12.292;2023-02-13T08:14:21;15.97;;;9.60;;
1799;SDS011;919;48.274;12.292;2023-02-13T08:16:48;12.03;;;7.47;;
1799;SDS011;919;48.274;12.292;2023-02-13T08:19:15;17.07;;;10.40;;
1799;SDS011;919;48.274;12.292;2023-02-13T08:21:42;16.10;;;8.90;;
1799;SDS011;919;48.274;12.292;2023-02-13T08:24:11;17.40;;;10.20;;
1799;SDS011;919;48.274;12.292;2023-02-13T08:26:38;12.73;;;7.47;;
1799;SDS011;919;48.274;12.292;2023-02-13T08:29:05;10.77;;;6.83;;
1799;SDS011;919;48.274;12.292;2023-02-13T08:31:32;17.93;;;9.47;;
1799;SDS011;919;48.274;12.292;2023-02-13T08:33:59;14.77;;;7.80;;
1799;SDS011;919;48.274;12.292;2023-02-13T08:36:26;14.10;;;8.50;;
1799;SDS011;919;48.274;12.292;2023-02-13T08:38:52;12.67;;;7.70;;
1799;SDS011;919;48.274;12.292;2023-02-13T08:41:21;14.30;;;8.07;;
1799;SDS011;919;48.274;12.292;2023-02-13T08:43:48;12.10;;;6.87;;
1799;SDS011;919;48.274;12.292;2023-02-13T08:46:15;16.90;;;8.80;;
1799;SDS011;919;48.274;12.292;2023-02-13T08:48:42;18.80;;;9.43;;
1799;SDS011;919;48.274;12.292;2023-02-13T08:51:10;19.53;;;9.57;;
1799;SDS011;919;48.274;12.292;2023-02-13T08:53:38;14.00;;;7.93;;
1799;SDS011;919;48.274;12.292;2023-02-13T08:56:06;18.50;;;8.83;;
1799;SDS011;919;48.274;12.292;2023-02-13T08:58:34;15.80;;;7.93;;
1799;SDS011;919;48.274;12.292;2023-02-13T09:01:03;15.13;;;9.10;;
1799;SDS011;919;48.274;12.292;2023-02-13T09:03:30;20.63;;;8.63;;
1799;SDS011;919;48.274;12.292;2023-02-13T09:05:57;17.97;;;9.30;;
1799;SDS011;919;48.274;12.292;2023-02-13T09:08:25;16.17;;;8.60;;
1799;SDS011;919;48.274;12.292;2023-02-13T09:10:54;21.03;;;8.97;;
1799;SDS011;919;48.274;12.292;2023-02-13T09:13:22;15.40;;;8.97;;
1799;SDS011;919;48.274;12.292;2023-02-13T09:15:50;16.83;;;9.40;;
1799;SDS011;919;48.274;12.292;2023-02-13T09:18:16;14.03;;;7.77;;
1799;SDS011;919;48.274;12.292;2023-02-13T09:20:43;15.87;;;9.00;;
1799;SDS011;919;48.274;12.292;2023-02-13T09:23:10;15.53;;;7.87;;
1799;SDS011;919;48.274;12.292;2023-02-13T09:25:36;17.50;;;9.37;;
1799;SDS011;919;48.274;12.292;2023-02-13T09:28:03;19.07;;;8.20;;
1799;SDS011;919;48.274;12.292;2023-02-13T09:30:30;19.23;;;9.40;;
1799;SDS011;919;48.274;12.292;2023-02-13T09:32:58;15.57;;;8.47;;
1799;SDS011;919;48.274;12.292;2023-02-13T09:35:25;15.37;;;7.90;;
1799;SDS011;919;48.274;12.292;2023-02-13T09:37:53;21.73;;;10.27;;
1799;SDS011;919;48.274;12.292;2023-02-13T09:40:21;18.07;;;10.60;;
1799;SDS011;919;48.274;12.292;2023-02-13T09:42:51;16.97;;;10.23;;
1799;SDS011;919;48.274;12.292;2023-02-13T09:45:20;21.57;;;10.37;;
1799;SDS011;919;48.274;12.292;2023-02-13T09:47:47;20.73;;;11.20;;
1799;SDS011;919;48.274;12.292;2023-02-13T09:50:17;18.60;;;9.63;;
1799;SDS011;919;48.274;12.292;2023-02-13T09:52:48;22.10;;;10.50;;
1799;SDS011;919;48.274;12.292;2023-02-13T09:55:17;18.50;;;9.00;;
1799;SDS011;919;48.274;12.292;2023-02-13T09:57:49;23.00;;;10.80;;
1799;SDS011;919;48.274;12.292;2023-02-13T10:00:20;20.33;;;9.93;;
1799;SDS011;919;48.274;12.292;2023-02-13T10:02:57;19.40;;;10.27;;
1799;SDS011;919;48.274;12.292;2023-02-13T10:05:41;21.53;;;10.30;;
1799;SDS011;919;48.274;12.292;2023-02-13T10:08:17;19.20;;;11.13;;
1799;SDS011;919;48.274;12.292;2023-02-13T10:10:52;20.53;;;10.20;;
1799;SDS011;919;48.274;12.292;2023-02-13T10:13:33;21.17;;;10.67;;
1799;SDS011;919;48.274;12.292;2023-02-13T10:16:13;21.50;;;10.60;;
1799;SDS011;919;48.274;12.292;2023-02-13T10:18:44;19.67;;;9.40;;
1799;SDS011;919;48.274;12.292;2023-02-13T10:21:16;24.47;;;11.60;;
1799;SDS011;919;48.274;12.292;2023-02-13T10:23:47;23.57;;;10.53;;
1799;SDS011;919;48.274;12.292;2023-02-13T10:26:20;17.57;;;8.40;;
1799;SDS011;919;48.274;12.292;2023-02-13T10:28:50;16.17;;;8.53;;
1799;SDS011;919;48.274;12.292;2023-02-13T10:31:41;15.60;;;8.13;;
1799;SDS011;919;48.274;12.292;2023-02-13T10:34:10;16.40;;;8.60;;
1799;SDS011;919;48.274;12.292;2023-02-13T10:36:43;22.23;;;9.53;;
1799;SDS011;919;48.274;12.292;2023-02-13T10:39:15;22.13;;;10.63;;
1799;SDS011;919;48.274;12.292;2023-02-13T10:41:49;19.07;;;10.33;;
1799;SDS011;919;48.274;12.292;2023-02-13T10:44:22;20.20;;;9.43;;
1799;SDS011;919;48.274;12.292;2023-02-13T10:47:13;20.23;;;9.97;;
1799;SDS011;919;48.274;12.292;2023-02-13T10:49:53;19.97;;;8.73;;
1799;SDS011;919;48.274;12.292;2023-02-13T10:52:31;20.20;;;10.43;;
1799;SDS011;919;48.274;12.292;2023-02-13T10:55:09;17.60;;;8.87;;
1799;SDS011;919;48.274;12.292;2023-02-13T10:57:52;15.80;;;8.93;;
1799;SDS011;919;48.274;12.292;2023-02-13T11:00:29;14.47;;;8.77;;
1799;SDS011;919;48.274;12.292;2023-02-13T11:03:00;14.93;;;9.70;;
1799;SDS011;919;48.274;12.292;2023-02-13T11:05:31;15.77;;;9.00;;
1799;SDS011;919;48.274;12.292;2023-02-13T11:08:04;18.30;;;9.73;;
1799;SDS011;919;48.274;12.292;2023-02-13T11:10:43;21.03;;;10.67;;
1799;SDS011;919;48.274;12.292;2023-02-13T11:13:14;17.53;;;9.77;;
1799;SDS011;919;48.274;12.292;2023-02-13T11:15:44;14.20;;;8.40;;
1799;SDS011;919;48.274;12.292;2023-02-13T11:18:26;13.73;;;8.97;;
1799;SDS011;919;48.274;12.292;2023-02-13T11:20:59;21.77;;;10.70;;
1799;SDS011;919;48.274;12.292;2023-02-13T11:23:34;20.10;;;9.30;;
1799;SDS011;919;48.274;12.292;2023-02-13T11:26:04;19.33;;;10.50;;
1799;SDS011;919;48.274;12.292;2023-02-13T11:28:35;20.90;;;12.33;;
1799;SDS011;919;48.274;12.292;2023-02-13T11:31:13;17.87;;;11.03;;
1799;SDS011;919;48.274;12.292;2023-02-13T11:33:46;20.47;;;11.77;;
1799;SDS011;919;48.274;12.292;2023-02-13T11:36:14;18.60;;;10.37;;
1799;SDS011;919;48.274;12.292;2023-02-13T11:38:44;20.73;;;9.67;;
1799;SDS011;919;48.274;12.292;2023-02-13T11:41:11;22.40;;;11.50;;
1799;SDS011;919;48.274;12.292;2023-02-13T11:43:43;22.20;;;11.80;;
1799;SDS011;919;48.274;12.292;2023-02-13T11:46:14;22.00;;;9.67;;
1799;SDS011;919;48.274;12.292;2023-02-13T11:48:55;21.47;;;9.80;;
1799;SDS011;919;48.274;12.292;2023-02-13T11:51:33;17.17;;;9.17;;
1799;SDS011;919;48.274;12.292;2023-02-13T11:54:03;18.93;;;10.57;;
1799;SDS011;919;48.274;12.292;2023-02-13T11:56:41;15.20;;;9.53;;
1799;SDS011;919;48.274;12.292;2023-02-13T11:59:13;20.93;;;9.47;;
1799;SDS011;919;48.274;12.292;2023-02-13T12:01:40;24.77;;;11.57;;
1799;SDS011;919;48.274;12.292;2023-02-13T12:04:13;18.57;;;9.87;;
1799;SDS011;919;48.274;12.292;2023-02-13T12:06:56;15.87;;;10.13;;
1799;SDS011;919;48.274;12.292;2023-02-13T12:09:26;18.27;;;10.60;;
1799;SDS011;919;48.274;12.292;2023-02-13T12:11:54;18.57;;;10.60;;
1799;SDS011;919;48.274;12.292;2023-02-13T12:14:24;20.13;;;10.87;;
1799;SDS011;919;48.274;12.292;2023-02-13T12:16:56;15.57;;;8.53;;
1799;SDS011;919;48.274;12.292;2023-02-13T12:19:30;22.80;;;10.23;;
1799;SDS011;919;48.274;12.292;2023-02-13T12:22:11;19.30;;;10.80;;
1799;SDS011;919;48.274;12.292;2023-02-13T12:24:58;20.77;;;11.37;;
1799;SDS011;919;48.274;12.292;2023-02-13T12:27:43;15.63;;;9.27;;
1799;SDS011;919;48.274;12.292;2023-02-13T12:30:29;19.07;;;9.63;;
1799;SDS011;919;48.274;12.292;2023-02-13T12:33:07;16.70;;;10.43;;
1799;SDS011;919;48.274;12.292;2023-02-13T12:35:44;21.50;;;11.37;;
1799;SDS011;919;48.274;12.292;2023-02-13T12:38:21;20.53;;;11.90;;
1799;SDS011;919;48.274;12.292;2023-02-13T12:41:12;14.07;;;8.80;;
1799;SDS011;919;48.274;12.292;2023-02-13T12:46:34;20.37;;;11.00;;
1799;SDS011;919;48.274;12.292;2023-02-13T12:49:07;19.97;;;10.70;;
1799;SDS011;919;48.274;12.292;2023-02-13T12:51:48;18.03;;;9.53;;
1799;SDS011;919;48.274;12.292;2023-02-13T12:54:31;18.93;;;10.07;;
1799;SDS011;919;48.274;12.292;2023-02-13T12:57:14;16.97;;;10.10;;
1799;SDS011;919;48.274;12.292;2023-02-13T13:00:06;20.03;;;11.67;;
1799;SDS011;919;48.274;12.292;2023-02-13T13:02:50;23.27;;;11.43;;
1799;SDS011;919;48.274;12.292;2023-02-13T13:05:41;22.03;;;12.00;;
1799;SDS011;919;48.274;12.292;2023-02-13T13:08:31;24.90;;;12.50;;
1799;SDS011;919;48.274;12.292;2023-02-13T13:11:15;24.33;;;12.17;;
1799;SDS011;919;48.274;12.292;2023-02-13T13:13:58;25.33;;;12.57;;
1799;SDS011;919;48.274;12.292;2023-02-13T13:16:34;20.20;;;11.47;;
1799;SDS011;919;48.274;12.292;2023-02-13T13:19:11;28.93;;;13.37;;
1799;SDS011;919;48.274;12.292;2023-02-13T13:21:45;27.77;;;12.97;;
1799;SDS011;919;48.274;12.292;2023-02-13T13:24:22;26.47;;;13.07;;
1799;SDS011;919;48.274;12.292;2023-02-13T13:26:55;23.30;;;13.53;;
1799;SDS011;919;48.274;12.292;2023-02-13T13:29:26;24.13;;;12.20;;
1799;SDS011;919;48.274;12.292;2023-02-13T13:32:07;30.73;;;13.10;;
1799;SDS011;919;48.274;12.292;2023-02-13T13:34:39;27.70;;;14.00;;
1799;SDS011;919;48.274;12.292;2023-02-13T13:37:08;27.30;;;13.30;;
1799;SDS011;919;48.274;12.292;2023-02-13T13:39:42;23.00;;;12.53;;
1799;SDS011;919;48.274;12.292;2023-02-13T13:42:17;27.50;;;12.90;;
1799;SDS011;919;48.274;12.292;2023-02-13T13:44:57;21.47;;;11.60;;
1799;SDS011;919;48.274;12.292;2023-02-13T13:47:44;27.80;;;13.20;;
1799;SDS011;919;48.274;12.292;2023-02-13T13:50:20;28.30;;;13.63;;
1799;SDS011;919;48.274;12.292;2023-02-13T13:53:04;29.23;;;14.30;;
1799;SDS011;919;48.274;12.292;2023-02-13T13:58:38;27.50;;;14.10;;
1799;SDS011;919;48.274;12.292;2023-02-13T14:03:54;29.80;;;14.50;;
1799;SDS011;919;48.274;12.292;2023-02-13T14:06:23;34.63;;;15.83;;
1799;SDS011;919;48.274;12.292;2023-02-13T14:09:01;33.57;;;16.30;;
1799;SDS011;919;48.274;12.292;2023-02-13T14:11:35;33.10;;;16.73;;
1799;SDS011;919;48.274;12.292;2023-02-13T14:17:16;32.17;;;14.03;;
1799;SDS011;919;48.274;12.292;2023-02-13T14:19:58;34.00;;;15.37;;
1799;SDS011;919;48.274;12.292;2023-02-13T14:22:26;36.83;;;14.77;;
1799;SDS011;919;48.274;12.292;2023-02-13T14:24:59;30.37;;;15.03;;
1799;SDS011;919;48.274;12.292;2023-02-13T14:27:28;31.80;;;15.23;;
1799;SDS011;919;48.274;12.292;2023-02-13T14:29:56;26.30;;;14.97;;
1799;SDS011;919;48.274;12.292;2023-02-13T14:32:27;31.20;;;14.20;;
1799;SDS011;919;48.274;12.292;2023-02-13T14:34:58;31.87;;;14.10;;
1799;SDS011;919;48.274;12.292;2023-02-13T14:37:28;31.00;;;16.00;;
1799;SDS011;919;48.274;12.292;2023-02-13T14:43:21;34.87;;;16.03;;
1799;SDS011;919;48.274;12.292;2023-02-13T14:46:06;29.03;;;16.27;;
1799;SDS011;919;48.274;12.292;2023-02-13T14:48:44;31.40;;;16.97;;
1799;SDS011;919;48.274;12.292;2023-02-13T14:51:20;24.50;;;13.63;;
1799;SDS011;919;48.274;12.292;2023-02-13T14:53:53;32.07;;;16.07;;
1799;SDS011;919;48.274;12.292;2023-02-13T14:56:24;31.77;;;16.03;;
1799;SDS011;919;48.274;12.292;2023-02-13T14:58:52;32.13;;;16.07;;
1799;SDS011;919;48.274;12.292;2023-02-13T15:01:25;34.20;;;17.73;;
1799;SDS011;919;48.274;12.292;2023-02-13T15:03:57;44.03;;;16.70;;
1799;SDS011;919;48.274;12.292;2023-02-13T15:06:29;30.90;;;14.93;;
1799;SDS011;919;48.274;12.292;2023-02-13T15:09:00;34.10;;;14.50;;
1799;SDS011;919;48.274;12.292;2023-02-13T15:11:32;32.87;;;14.70;;
1799;SDS011;919;48.274;12.292;2023-02-13T15:14:14;28.07;;;13.83;;
1799;SDS011;919;48.274;12.292;2023-02-13T15:16:47;28.10;;;14.27;;
1799;SDS011;919;48.274;12.292;2023-02-13T15:19:19;35.40;;;16.57;;
1799;SDS011;919;48.274;12.292;2023-02-13T15:21:47;33.53;;;17.37;;
1799;SDS011;919;48.274;12.292;2023-02-13T15:24:18;31.80;;;16.33;;
1799;SDS011;919;48.274;12.292;2023-02-13T15:27:01;36.00;;;14.53;;
1799;SDS011;919;48.274;12.292;2023-02-13T15:29:29;29.17;;;13.43;;
1799;SDS011;919;48.274;12.292;2023-02-13T15:31:57;34.43;;;15.27;;
1799;SDS011;919;48.274;12.292;2023-02-13T15:34:26;32.00;;;16.23;;
1799;SDS011;919;48.274;12.292;2023-02-13T15:36:56;31.93;;;16.60;;
1799;SDS011;919;48.274;12.292;2023-02-13T15:39:24;34.70;;;16.00;;
1799;SDS011;919;48.274;12.292;2023-02-13T15:41:52;29.63;;;14.90;;